Impacts TAF Board
For situational awareness. Not to be used for flight planning purposes.
IDs:

KCVG - Cincinnati Intl, KY, US

Issued at 0523 UTC 22 Oct 2018
Updated at 0642 UTC 22 Oct 2018
Potential Impact None Slight Moderate High
Time0552Z 22/07Z 22/08Z 22/09Z 22/10Z 22/11Z 22/12Z 22/13Z 22/14Z 22/15Z 22/16Z 22/17Z 22/18Z 22/19Z>>
Type OBS PRVL PRVL PRVL PRVL PRVL PRVL PRVL PRVL PRVL PRVL PRVL PRVL PRVL
VIS 10 >6 >6 >6 >6 >6 >6 >6 >6 >6 >6 >6 >6 >6
CIG -- -- -- -- -- -- -- -- -- -- -- -- -- --
Cover CLR FEW FEW FEW FEW FEW FEW FEW FEW SCT SCT SCT SCT SCT
FltCat VFR VFR VFR VFR VFR VFR VFR VFR VFR VFR VFR VFR VFR VFR
WX -- -- -- -- -- -- -- -- -- -- -- -- -- --
WDir 200 200 200 200 200 200 200 200 200 220 220 220 220 220
WSpd 6 5 5 5 5 5 5 5 5 11 11 11 11 11
WGst -- -- -- -- -- -- -- -- -- 19 19 19 19 19
Raw TAF
KCVG 220523Z 2206/2312 20005KT P6SM FEW250
  FM221500 22011G19KT P6SM SCT250
  FM222200 23007KT P6SM FEW035 SCT250
  FM231100 27005KT P6SM SCT250


Raw METAR
KCVG 220552Z 20006KT 10SM CLR 02/M01 A3022 RMK AO2 SLP236 T00221011 10056 20011 53001
KCVG 220452Z 20006KT 10SM CLR 03/M01 A3021 RMK AO2 SLP234 T00281006 401060000
KCVG 220352Z 19005KT 10SM CLR 03/M01 A3021 RMK AO2 SLP234 T00281006

METAR Board
Radar Display
Forecast Discussion
For situational awareness. Not to be used for flight planning purposes.